createdAt,value
2023-01-07T00:01:44.783Z,6.97
2023-01-07T00:04:14.901Z,8.18
2023-01-07T00:06:45.125Z,7.05
2023-01-07T00:09:16.941Z,6.72
2023-01-07T00:11:45.781Z,8.63
2023-01-07T00:14:15.190Z,5.38
2023-01-07T00:16:44.736Z,5.75
2023-01-07T00:19:16.115Z,5.72
2023-01-07T00:21:44.357Z,8.43
2023-01-07T00:24:13.204Z,6.80
2023-01-07T00:26:42.142Z,6.35
2023-01-07T00:29:10.930Z,10.13
2023-01-07T00:31:40.890Z,8.55
2023-01-07T00:34:11.211Z,9.52
2023-01-07T00:36:42.329Z,9.57
2023-01-07T00:39:13.780Z,9.52
2023-01-07T00:42:02.422Z,8.80
2023-01-07T00:44:30.915Z,7.10
2023-01-07T00:46:59.151Z,8.68
2023-01-07T00:49:28.838Z,8.07
2023-01-07T00:51:57.370Z,7.15
2023-01-07T00:54:26.239Z,6.70
2023-01-07T00:56:54.332Z,6.38
2023-01-07T00:59:22.419Z,7.88
2023-01-07T01:01:50.600Z,7.38
2023-01-07T01:04:18.838Z,6.47
2023-01-07T01:06:48.374Z,5.65
2023-01-07T01:09:16.539Z,5.90
2023-01-07T01:11:44.704Z,6.25
2023-01-07T01:14:13.504Z,4.82
2023-01-07T01:16:41.636Z,5.97
2023-01-07T01:19:09.731Z,6.80
2023-01-07T01:21:37.890Z,6.90
2023-01-07T01:24:07.818Z,5.47
2023-01-07T01:26:35.927Z,7.22
2023-01-07T01:29:04.039Z,4.47
2023-01-07T01:31:33.796Z,5.22
2023-01-07T01:34:01.879Z,7.70
2023-01-07T01:36:30.031Z,9.70
2023-01-07T01:39:00.089Z,5.10
2023-01-07T01:41:33.676Z,4.78
2023-01-07T01:44:02.926Z,7.03
2023-01-07T01:46:36.060Z,4.97
2023-01-07T01:49:09.130Z,5.45
2023-01-07T01:51:41.118Z,5.30
2023-01-07T01:54:13.982Z,4.47
2023-01-07T01:56:50.529Z,4.38
2023-01-07T01:59:21.823Z,4.47
2023-01-07T02:01:50.147Z,4.38
2023-01-07T02:04:22.044Z,3.25
2023-01-07T02:06:56.393Z,3.55
2023-01-07T02:09:28.013Z,5.93
2023-01-07T02:12:05.970Z,4.13
2023-01-07T02:15:04.292Z,4.88
2023-01-07T02:17:45.782Z,4.30
2023-01-07T02:20:40.777Z,5.25
2023-01-07T02:23:36.126Z,4.07
2023-01-07T02:26:39.145Z,5.03
2023-01-07T02:29:49.206Z,5.80
2023-01-07T02:32:30.426Z,4.22
2023-01-07T02:35:10.480Z,7.57
2023-01-07T02:37:45.768Z,4.75
2023-01-07T02:40:20.412Z,5.22
2023-01-07T02:42:58.062Z,4.65
2023-01-07T02:45:30.765Z,5.45
2023-01-07T02:48:03.621Z,5.35
2023-01-07T02:50:31.702Z,6.20
2023-01-07T02:52:59.985Z,7.22
2023-01-07T02:55:39.931Z,5.72
2023-01-07T02:58:41.493Z,4.93
2023-01-07T03:01:51.783Z,4.90
2023-01-07T03:04:40.622Z,4.88
2023-01-07T03:07:24.689Z,4.80
2023-01-07T03:09:57.997Z,6.88
2023-01-07T03:12:33.458Z,8.52
2023-01-07T03:15:10.176Z,6.13
2023-01-07T03:17:44.089Z,4.45
2023-01-07T03:20:17.098Z,6.68
2023-01-07T03:22:47.500Z,7.05
2023-01-07T03:25:16.182Z,5.82
2023-01-07T03:27:47.868Z,6.82
2023-01-07T03:30:18.357Z,8.18
2023-01-07T03:32:50.583Z,5.78
2023-01-07T03:35:22.857Z,5.50
2023-01-07T03:37:53.910Z,7.22
2023-01-07T03:40:22.621Z,6.97
2023-01-07T03:42:50.156Z,6.05
2023-01-07T03:45:26.259Z,6.45
2023-01-07T03:47:58.390Z,6.43
2023-01-07T03:50:33.953Z,7.45
2023-01-07T03:53:02.178Z,7.05
2023-01-07T03:55:31.912Z,5.90
2023-01-07T03:58:00.394Z,6.90
2023-01-07T04:00:28.548Z,5.30
2023-01-07T04:03:03.880Z,5.65
2023-01-07T04:05:38.420Z,5.60
2023-01-07T04:08:06.868Z,6.35
2023-01-07T04:10:37.974Z,5.88
2023-01-07T04:13:06.037Z,5.43
2023-01-07T04:15:34.403Z,6.30
2023-01-07T04:18:03.043Z,6.07
2023-01-07T04:20:32.243Z,7.93
2023-01-07T04:23:01.673Z,8.00
2023-01-07T04:25:32.291Z,6.72
2023-01-07T04:28:03.031Z,7.28
2023-01-07T04:30:31.144Z,6.85
2023-01-07T04:32:59.756Z,8.40
2023-01-07T04:35:27.980Z,5.90
2023-01-07T04:37:56.206Z,6.40
2023-01-07T04:40:26.024Z,7.57
2023-01-07T04:42:54.223Z,6.90
2023-01-07T04:45:22.496Z,7.53
2023-01-07T04:47:50.635Z,8.05
2023-01-07T04:50:19.166Z,8.27
2023-01-07T04:52:47.708Z,10.02
2023-01-07T04:55:16.857Z,7.35
2023-01-07T04:57:47.677Z,8.25
2023-01-07T05:00:16.640Z,8.38
2023-01-07T05:02:47.451Z,8.23
2023-01-07T05:05:15.536Z,9.60
2023-01-07T05:07:44.985Z,10.07
2023-01-07T05:10:14.407Z,10.18
2023-01-07T05:12:42.641Z,8.27
2023-01-07T05:15:13.957Z,9.82
2023-01-07T05:17:43.451Z,8.20
2023-01-07T05:20:13.637Z,9.18
2023-01-07T05:22:41.757Z,8.48
2023-01-07T05:25:11.249Z,7.95
2023-01-07T05:27:39.316Z,7.97
2023-01-07T05:30:10.254Z,9.18
2023-01-07T05:32:39.881Z,10.00
2023-01-07T05:35:08.972Z,9.38
2023-01-07T05:37:37.522Z,10.68
2023-01-07T05:40:08.052Z,8.57
2023-01-07T05:42:36.392Z,8.75
2023-01-07T05:45:06.375Z,9.38
2023-01-07T05:47:34.611Z,7.78
2023-01-07T05:50:04.112Z,10.00
2023-01-07T05:52:32.169Z,8.60
2023-01-07T05:55:00.239Z,8.52
2023-01-07T05:57:28.487Z,9.02
2023-01-07T05:59:56.534Z,9.15
2023-01-07T06:02:24.594Z,9.80
2023-01-07T06:04:52.758Z,8.40
2023-01-07T06:07:22.262Z,10.32
2023-01-07T06:09:50.463Z,9.07
2023-01-07T06:12:18.481Z,8.65
2023-01-07T06:14:46.652Z,9.60
2023-01-07T06:17:14.707Z,8.10
2023-01-07T06:19:42.771Z,8.95
2023-01-07T06:22:10.889Z,9.02
2023-01-07T06:24:40.371Z,7.97
2023-01-07T06:27:08.481Z,7.82
2023-01-07T06:29:36.554Z,8.75
2023-01-07T06:32:04.757Z,8.30
2023-01-07T06:34:32.886Z,8.38
2023-01-07T06:37:00.947Z,11.00
2023-01-07T06:39:29.015Z,8.05
2023-01-07T06:41:58.554Z,7.50
2023-01-07T06:44:26.583Z,9.88
2023-01-07T06:46:54.947Z,9.20
2023-01-07T06:49:23.228Z,8.05
2023-01-07T06:51:51.314Z,7.00
2023-01-07T06:54:19.401Z,8.43
2023-01-07T06:56:47.477Z,7.18
2023-01-07T06:59:17.180Z,8.18
2023-01-07T07:01:46.697Z,8.38
2023-01-07T07:04:15.070Z,7.60
2023-01-07T07:06:43.164Z,7.78
2023-01-07T07:09:11.549Z,8.57
2023-01-07T07:11:39.589Z,7.35
2023-01-07T07:14:07.754Z,9.18
2023-01-07T07:16:37.203Z,9.50
2023-01-07T07:19:05.383Z,10.38
2023-01-07T07:21:33.431Z,7.43
2023-01-07T07:24:01.564Z,7.15
2023-01-07T07:26:29.634Z,6.68
2023-01-07T07:28:57.732Z,6.60
2023-01-07T07:31:26.130Z,8.63
2023-01-07T07:33:55.706Z,7.50
2023-01-07T07:36:24.093Z,7.00
2023-01-07T07:38:52.153Z,7.32
2023-01-07T07:41:20.251Z,6.63
2023-01-07T07:43:48.358Z,7.13
2023-01-07T07:46:16.672Z,6.00
2023-01-07T07:48:44.774Z,6.70
2023-01-07T07:51:14.245Z,6.57
2023-01-07T07:53:42.302Z,6.18
2023-01-07T07:56:11.062Z,7.05
2023-01-07T07:58:39.119Z,6.70
2023-01-07T08:01:07.489Z,6.03
2023-01-07T08:03:35.673Z,5.55
2023-01-07T08:06:04.692Z,5.50
2023-01-07T08:08:34.578Z,6.43
2023-01-07T08:11:04.589Z,5.78
2023-01-07T08:13:33.039Z,5.90
2023-01-07T08:16:01.244Z,5.50
2023-01-07T08:18:29.468Z,5.38
2023-01-07T08:20:57.651Z,6.30
2023-01-07T08:23:27.983Z,5.05
2023-01-07T08:26:00.552Z,5.07
2023-01-07T08:28:28.684Z,4.88
2023-01-07T08:30:56.768Z,5.25
2023-01-07T08:33:24.894Z,6.15
2023-01-07T08:35:52.928Z,5.93
2023-01-07T08:38:21.047Z,4.88
2023-01-07T08:40:50.270Z,4.97
2023-01-07T08:43:19.747Z,6.05
2023-01-07T08:45:49.845Z,5.18
2023-01-07T08:48:18.195Z,5.65
2023-01-07T08:50:50.718Z,4.13
2023-01-07T08:53:19.057Z,4.20
2023-01-07T08:55:47.202Z,5.60
2023-01-07T08:58:15.276Z,5.80
2023-01-07T09:00:44.857Z,4.00
2023-01-07T09:03:12.955Z,3.85
2023-01-07T09:05:41.012Z,3.63
2023-01-07T09:08:09.124Z,4.40
2023-01-07T09:10:37.225Z,3.20
2023-01-07T09:13:05.469Z,3.80
2023-01-07T09:15:33.600Z,4.68
2023-01-07T09:18:04.052Z,3.83
2023-01-07T09:20:32.175Z,7.35
2023-01-07T09:23:00.432Z,3.75
2023-01-07T09:25:28.597Z,5.72
2023-01-07T09:27:56.684Z,4.10
2023-01-07T09:30:24.821Z,4.85
2023-01-07T09:32:52.978Z,5.00
2023-01-07T09:35:23.689Z,3.80
2023-01-07T09:37:51.775Z,3.40
2023-01-07T09:40:24.754Z,3.85
2023-01-07T09:42:59.366Z,5.45
2023-01-07T09:45:31.770Z,3.72
2023-01-07T09:48:02.997Z,3.33
2023-01-07T09:50:47.384Z,3.25
2023-01-07T09:53:20.952Z,3.35
2023-01-07T09:56:10.826Z,3.80
2023-01-07T09:58:42.758Z,5.10
2023-01-07T10:01:21.788Z,3.92
2023-01-07T10:03:57.889Z,3.00
2023-01-07T10:06:43.483Z,3.55
2023-01-07T10:09:27.257Z,2.72
2023-01-07T10:12:03.118Z,4.75
2023-01-07T10:15:16.385Z,4.22
2023-01-07T10:17:56.351Z,3.13
2023-01-07T10:20:37.527Z,2.70
2023-01-07T10:23:11.400Z,2.83
2023-01-07T10:25:46.834Z,2.47
2023-01-07T10:28:19.206Z,3.00
2023-01-07T10:30:51.797Z,3.10
2023-01-07T10:33:25.123Z,2.92
2023-01-07T10:36:02.620Z,3.72
2023-01-07T10:38:36.132Z,2.15
2023-01-07T10:41:11.160Z,2.70
2023-01-07T10:43:53.893Z,2.75
2023-01-07T10:46:35.373Z,2.13
2023-01-07T10:49:33.757Z,3.13
2023-01-07T10:52:16.397Z,2.83
2023-01-07T10:55:11.346Z,3.67
2023-01-07T10:57:39.828Z,2.30
2023-01-07T11:00:15.032Z,5.90
2023-01-07T11:02:45.493Z,2.05
2023-01-07T11:05:14.952Z,2.35
2023-01-07T11:07:46.925Z,2.20
2023-01-07T11:10:18.790Z,2.75
2023-01-07T11:12:50.305Z,1.92
2023-01-07T11:15:23.698Z,2.30
2023-01-07T11:17:56.597Z,4.50
2023-01-07T11:20:45.428Z,2.75
2023-01-07T11:23:31.378Z,3.38
2023-01-07T11:26:17.356Z,2.17
2023-01-07T11:28:52.460Z,2.00
2023-01-07T11:31:21.104Z,2.17
2023-01-07T11:34:01.934Z,4.45
2023-01-07T11:36:42.011Z,1.88
2023-01-07T11:39:12.147Z,1.70
2023-01-07T11:41:52.928Z,2.83
2023-01-07T11:44:21.021Z,2.05
2023-01-07T11:46:49.318Z,2.72
2023-01-07T11:49:29.006Z,1.70
2023-01-07T11:51:57.942Z,1.60
2023-01-07T11:54:27.676Z,1.90
2023-01-07T11:57:13.050Z,1.60
2023-01-07T11:59:41.288Z,2.78
2023-01-07T12:02:27.048Z,1.38
2023-01-07T12:05:22.541Z,1.60
2023-01-07T12:07:52.798Z,2.00
2023-01-07T12:10:34.169Z,2.85
2023-01-07T12:13:05.693Z,1.52
2023-01-07T12:15:38.387Z,1.50
2023-01-07T12:18:37.429Z,3.88
2023-01-07T12:21:26.262Z,1.40
2023-01-07T12:24:13.613Z,1.52
2023-01-07T12:26:48.320Z,1.33
2023-01-07T12:29:27.375Z,1.30
2023-01-07T12:32:12.057Z,1.48
2023-01-07T12:34:50.733Z,1.33
2023-01-07T12:37:31.656Z,1.27
2023-01-07T12:40:17.166Z,1.23
2023-01-07T12:42:51.259Z,1.27
2023-01-07T12:45:26.743Z,1.20
2023-01-07T12:47:59.440Z,1.48
2023-01-07T12:50:32.913Z,1.77
2023-01-07T12:53:06.993Z,1.35
2023-01-07T12:55:37.760Z,1.05
2023-01-07T12:58:15.161Z,1.42
2023-01-07T13:00:50.263Z,2.92
2023-01-07T13:03:30.971Z,1.30
2023-01-07T13:06:05.377Z,1.45
2023-01-07T13:08:42.641Z,3.50
2023-01-07T13:11:17.969Z,1.10
2023-01-07T13:13:50.320Z,1.13
2023-01-07T13:16:18.692Z,1.75
2023-01-07T13:18:46.764Z,1.60
2023-01-07T13:21:17.050Z,1.10
2023-01-07T13:24:07.162Z,2.28
2023-01-07T13:26:48.264Z,1.23
2023-01-07T13:29:26.996Z,1.65
2023-01-07T13:32:25.983Z,1.25
2023-01-07T13:35:14.186Z,1.45
2023-01-07T13:37:53.746Z,1.40
2023-01-07T13:40:52.724Z,1.20
2023-01-07T13:43:33.308Z,1.30
2023-01-07T13:46:04.264Z,2.05
2023-01-07T13:48:34.697Z,1.55
2023-01-07T13:51:05.729Z,1.27
2023-01-07T13:53:46.227Z,0.90
2023-01-07T13:56:32.446Z,1.27
2023-01-07T13:59:01.522Z,1.10
2023-01-07T14:01:32.815Z,1.30
2023-01-07T14:04:43.932Z,1.52
2023-01-07T14:07:13.044Z,1.98
2023-01-07T14:09:41.792Z,1.27
2023-01-07T14:12:51.910Z,1.20
2023-01-07T14:15:42.734Z,2.47
2023-01-07T14:18:44.953Z,2.17
2023-01-07T14:22:04.717Z,1.25
2023-01-07T14:25:07.994Z,1.40
2023-01-07T14:28:02.695Z,1.45
2023-01-07T14:30:36.169Z,1.98
2023-01-07T14:33:07.946Z,2.03
2023-01-07T14:35:38.598Z,1.42
2023-01-07T14:38:41.327Z,1.75
2023-01-07T14:41:11.431Z,1.27
2023-01-07T14:44:10.497Z,1.20
2023-01-07T14:46:47.949Z,1.15
2023-01-07T14:50:09.766Z,1.80
2023-01-07T14:53:23.003Z,2.10
2023-01-07T14:56:09.945Z,1.60
2023-01-07T14:59:12.692Z,1.80
2023-01-07T15:01:59.695Z,1.85
2023-01-07T15:04:47.051Z,2.38
2023-01-07T15:07:18.850Z,2.03
2023-01-07T15:10:10.960Z,2.10
2023-01-07T15:12:59.265Z,1.67
2023-01-07T15:15:47.849Z,1.95
2023-01-07T15:18:16.869Z,1.67
2023-01-07T15:20:55.969Z,1.52
2023-01-07T15:23:33.226Z,2.88
2023-01-07T15:26:07.446Z,2.15
2023-01-07T15:28:44.654Z,2.05
2023-01-07T15:31:21.589Z,2.38
2023-01-07T15:34:07.708Z,1.70
2023-01-07T15:36:41.257Z,1.17
2023-01-07T15:39:19.680Z,2.40
2023-01-07T15:41:48.458Z,2.17
2023-01-07T15:44:21.367Z,2.95
2023-01-07T15:46:49.726Z,0.90
2023-01-07T15:49:21.926Z,1.30
2023-01-07T15:51:53.373Z,1.10
2023-01-07T15:54:32.282Z,1.35
2023-01-07T15:57:12.079Z,1.42
2023-01-07T15:59:45.215Z,1.38
2023-01-07T16:02:27.602Z,1.67
2023-01-07T16:04:58.780Z,2.15
2023-01-07T16:07:30.111Z,2.13
2023-01-07T16:10:00.583Z,2.35
2023-01-07T16:12:35.089Z,2.40
2023-01-07T16:15:05.180Z,1.92
2023-01-07T16:17:35.119Z,2.28
2023-01-07T16:20:20.101Z,3.15
2023-01-07T16:22:48.373Z,1.45
2023-01-07T16:25:26.210Z,1.45
2023-01-07T16:27:55.583Z,2.75
2023-01-07T16:30:24.262Z,3.53
2023-01-07T16:32:54.632Z,1.45
2023-01-07T16:35:28.576Z,2.47
2023-01-07T16:37:56.865Z,1.60
2023-01-07T16:40:34.742Z,1.90
2023-01-07T16:43:03.670Z,2.75
2023-01-07T16:45:35.524Z,3.03
2023-01-07T16:48:20.090Z,1.80
2023-01-07T16:50:49.792Z,2.95
2023-01-07T16:53:27.208Z,2.35
2023-01-07T16:56:13.731Z,2.08
2023-01-07T16:58:43.652Z,2.03
2023-01-07T17:01:12.770Z,2.25
2023-01-07T17:03:51.126Z,1.80
2023-01-07T17:06:25.131Z,2.10
2023-01-07T17:08:56.500Z,2.00
2023-01-07T17:11:32.723Z,2.20
2023-01-07T17:14:00.956Z,1.98
2023-01-07T17:16:31.546Z,2.03
2023-01-07T17:19:23.042Z,2.05
2023-01-07T17:21:51.377Z,3.08
2023-01-07T17:24:44.321Z,3.72
2023-01-07T17:27:21.575Z,3.10
2023-01-07T17:29:50.019Z,2.40
2023-01-07T17:32:18.526Z,1.85
2023-01-07T17:34:46.654Z,1.50
2023-01-07T17:37:16.018Z,1.70
2023-01-07T17:39:44.736Z,2.13
2023-01-07T17:42:40.462Z,1.80
2023-01-07T17:45:15.411Z,1.77
2023-01-07T17:47:43.847Z,2.78
2023-01-07T17:50:14.927Z,1.98
2023-01-07T17:52:46.250Z,1.90
2023-01-07T17:55:16.540Z,1.85
2023-01-07T17:57:46.237Z,2.10
2023-01-07T18:00:17.311Z,1.90
2023-01-07T18:02:46.099Z,2.15
2023-01-07T18:05:17.172Z,2.38
2023-01-07T18:07:45.600Z,4.50
2023-01-07T18:10:15.510Z,4.68
2023-01-07T18:12:44.565Z,5.53
2023-01-07T18:15:18.981Z,1.98
2023-01-07T18:17:47.534Z,2.80
2023-01-07T18:20:16.176Z,2.20
2023-01-07T18:22:44.524Z,2.88
2023-01-07T18:25:18.753Z,4.05
2023-01-07T18:27:49.559Z,2.63
2023-01-07T18:30:20.300Z,2.00
2023-01-07T18:32:51.216Z,4.93
2023-01-07T18:35:19.798Z,2.50
2023-01-07T18:37:49.772Z,2.53
2023-01-07T18:40:18.666Z,2.95
2023-01-07T18:42:48.452Z,2.80
2023-01-07T18:45:16.924Z,2.80
2023-01-07T18:47:45.940Z,2.65
2023-01-07T18:50:14.626Z,2.60
2023-01-07T18:52:43.974Z,2.08
2023-01-07T18:55:12.793Z,2.70
2023-01-07T18:57:40.930Z,2.53
2023-01-07T19:00:11.993Z,2.70
2023-01-07T19:02:40.542Z,2.45
2023-01-07T19:05:09.386Z,2.75
2023-01-07T19:07:37.916Z,2.85
2023-01-07T19:10:06.752Z,2.35
2023-01-07T19:12:35.158Z,2.75
2023-01-07T19:15:03.368Z,2.65
2023-01-07T19:17:32.923Z,3.10
2023-01-07T19:20:01.147Z,2.95
2023-01-07T19:22:29.365Z,2.80
2023-01-07T19:24:57.778Z,2.70
2023-01-07T19:27:26.293Z,2.97
2023-01-07T19:29:54.594Z,2.97
2023-01-07T19:32:22.894Z,2.90
2023-01-07T19:34:53.109Z,3.08
2023-01-07T19:37:21.986Z,2.53
2023-01-07T19:39:50.269Z,2.78
2023-01-07T19:42:18.421Z,2.58
2023-01-07T19:44:46.671Z,3.80
2023-01-07T19:47:16.505Z,3.53
2023-01-07T19:49:45.336Z,3.40
2023-01-07T19:52:14.971Z,4.80
2023-01-07T19:54:43.170Z,3.72
2023-01-07T19:57:14.274Z,3.35
2023-01-07T19:59:42.530Z,3.15
2023-01-07T20:02:13.890Z,4.28
2023-01-07T20:04:43.112Z,2.85
2023-01-07T20:07:11.437Z,4.30
2023-01-07T20:09:43.533Z,2.85
2023-01-07T20:12:11.877Z,2.80
2023-01-07T20:14:40.170Z,3.58
2023-01-07T20:17:08.386Z,3.53
2023-01-07T20:19:36.531Z,4.45
2023-01-07T20:22:04.825Z,3.45
2023-01-07T20:24:33.531Z,3.28
2023-01-07T20:27:03.046Z,3.85
2023-01-07T20:29:31.195Z,3.90
2023-01-07T20:31:59.369Z,3.30
2023-01-07T20:34:27.569Z,3.20
2023-01-07T20:36:55.725Z,3.92
2023-01-07T20:39:24.231Z,4.95
2023-01-07T20:41:52.356Z,3.15
2023-01-07T20:44:22.216Z,3.88
2023-01-07T20:46:50.655Z,3.28
2023-01-07T20:49:18.851Z,5.25
2023-01-07T20:51:47.157Z,3.95
2023-01-07T20:54:15.626Z,4.40
2023-01-07T20:56:45.285Z,3.20
2023-01-07T20:59:15.802Z,3.90
2023-01-07T21:01:45.574Z,3.30
2023-01-07T21:04:14.305Z,4.00
2023-01-07T21:06:42.494Z,4.50
2023-01-07T21:09:11.634Z,4.28
2023-01-07T21:11:40.704Z,4.00
2023-01-07T21:14:09.014Z,3.95
2023-01-07T21:16:38.218Z,4.43
2023-01-07T21:19:08.075Z,5.15
2023-01-07T21:21:37.247Z,3.90
2023-01-07T21:24:05.885Z,4.25
2023-01-07T21:26:34.133Z,3.78
2023-01-07T21:29:02.337Z,5.18
2023-01-07T21:31:30.505Z,4.50
2023-01-07T21:33:59.188Z,3.95
2023-01-07T21:36:29.723Z,3.75
2023-01-07T21:38:59.252Z,4.00
2023-01-07T21:41:28.049Z,5.03
2023-01-07T21:43:56.628Z,4.65
2023-01-07T21:46:25.036Z,4.57
2023-01-07T21:48:53.314Z,4.47
2023-01-07T21:51:23.290Z,3.88
2023-01-07T21:53:55.784Z,5.85
2023-01-07T21:56:27.333Z,4.00
2023-01-07T21:58:55.620Z,4.07
2023-01-07T22:01:28.607Z,5.38
2023-01-07T22:03:58.758Z,4.10
2023-01-07T22:06:28.601Z,3.90
2023-01-07T22:09:00.085Z,4.28
2023-01-07T22:11:28.806Z,4.38
2023-01-07T22:13:58.614Z,4.57
2023-01-07T22:16:29.034Z,4.20
2023-01-07T22:18:58.127Z,4.28
2023-01-07T22:21:26.703Z,4.25
2023-01-07T22:23:54.881Z,3.63
2023-01-07T22:26:24.847Z,6.20
2023-01-07T22:28:54.947Z,5.65
2023-01-07T22:31:25.157Z,5.10
2023-01-07T22:33:53.670Z,6.97
2023-01-07T22:36:27.325Z,4.35
2023-01-07T22:38:58.800Z,4.70
2023-01-07T22:41:31.163Z,4.75
2023-01-07T22:44:00.571Z,4.15
2023-01-07T22:46:31.856Z,4.00
2023-01-07T22:49:00.459Z,5.75
2023-01-07T22:51:32.129Z,4.07
2023-01-07T22:54:01.835Z,5.72
2023-01-07T22:56:32.045Z,5.35
2023-01-07T22:59:00.261Z,4.20
2023-01-07T23:01:28.643Z,5.70
2023-01-07T23:03:56.835Z,4.15
2023-01-07T23:06:25.299Z,4.70
2023-01-07T23:08:53.554Z,4.93
2023-01-07T23:11:39.310Z,4.68
2023-01-07T23:14:09.061Z,4.15
2023-01-07T23:16:37.673Z,5.22
2023-01-07T23:19:06.541Z,5.63
2023-01-07T23:21:36.834Z,4.35
2023-01-07T23:24:05.080Z,3.88
2023-01-07T23:26:33.560Z,7.05
2023-01-07T23:29:01.784Z,4.57
2023-01-07T23:31:33.417Z,3.85
2023-01-07T23:34:01.913Z,3.55
2023-01-07T23:36:30.207Z,6.72
2023-01-07T23:38:58.620Z,4.55
2023-01-07T23:41:26.782Z,4.28
2023-01-07T23:43:54.945Z,4.47
2023-01-07T23:46:23.186Z,4.20
2023-01-07T23:48:52.730Z,4.20
2023-01-07T23:51:22.147Z,3.85
2023-01-07T23:53:51.619Z,4.00
2023-01-07T23:56:21.092Z,6.50
2023-01-07T23:58:50.521Z,4.65
